Barnstable, MA (02630)

1:57 PM EST on December 25, 2014 (GMT -0500)
Cape Air EDC Building | Change Station
CLOSE
Current Station
Personal Weather Station
Location: Hyannis, MA
Elevation: 49 ft
Nearby Weather Stations

Elev 49 ft 41.67 °N, 70.29 °W | Updated 2 seconds ago

Clear
Clear
54.3 °F
Feels Like 54.3 °F
N
11.6
Wind Variable Wind from West
Gusts 16.3 mph

Today
High -- | Low -- °F
--% Chance of Precip.
Yesterday
High -- | Low -- °F
Precip. -- in
7:06 AM 4:16 PM
Waxing Crescent, 18% visible
Pressure 29.60 in
Visibility 10.0 miles
Clouds Clear
Dew Point 39 °F
Humidity 56%
Rainfall 0.00 in
Snow Depth Not available.
UV 2 out of 12
Pollen .10 out of 12
Air Quality Not available.
Flu Activity Not available.
METAR KHYA 251756Z 25010KT 10SM CLR 12/08 A2960 RMK AO2 SLP022 60027 T01170083 10150 20100 53002

More Conditions Fewer Conditions

Pressure 29.60 in
Visibility 10.0 miles
Clouds Clear
Dew Point 39 °F
Humidity 56%
Rainfall 0.00 in
Snow Depth Not available.
UV 2 out of 12
Pollen .10 out of 12
Air Quality Not available.
Flu Activity Not available.
METAR KHYA 251756Z 25010KT 10SM CLR 12/08 A2960 RMK AO2 SLP022 60027 T01170083 10150 20100 53002

More Conditions Fewer Conditions

10-Day Weather Forecast

Almanac

Astronomy

Dec. 25, 2014 Rise Set
Actual Time
Civil Twilight
Nautical Twilight
Astronomical Twilight
Moon
Length of Visible Light
Length of Day
Tomorrow will be .
, % of the Moon is Illuminated

Today's Extremes

State Highs State Lows

Community

WunderPhotos

Upload Photos

1,780,358 photos uploaded!

WunderBlogs® & News

Nearby

Air Quality

  Air Quality AQ Index Pollutant
Not available.

Snow Depth

Station Depth Elevation

Earthquake Activity

City Distance Mag. Time & Date
Minimum magnitude displayed is 2.5.

Coastal Water Temperatures

Place Temperature

Nearby Weather Stations